KPWC

Pine River Regional Airport

Pine River, Minnesota, USA
METAR KPWC 181445Z AUTO 14004KT 7SM OVC003 17/16 A3013 RMK AO2
Observed Flight Rules
Aug-18 @ 14:45 UTC (7 hours ago) Instrument Flight Rules
Wind Visibility Clouds
140° at 4 knots 7 miles
  • Overcast at 300' AGL
Temperatures Readings
Current 17°C / 63°F
Dewpoint 16°C / 61°F
Humidity 94%
Altimeter 30.13" Hg
Pressure 1020 hPa
Elevation 395
METAR KPWC 181445Z AUTO 14004KT 7SM OVC003 17/16 A3013 RMK AO2
Observed Flight Rules
Aug-18 @ 14:45 UTC
(7 hours ago)
LIFR
Wind Visibility
140° at 4 knots 7 miles
Clouds
  • Overcast at 300' AGL
Temperature Dewpoint
17°C / 63°F 16°C / 61°F
Humidity Altimeter Pressure
94% 30.13" Hg 1020 hPa